Time;durP1;ratioP1;P1;durP2;ratioP2;P2;SDS_P1;SDS_P2;PMS_P1;PMS_P2;Temp;Humidity;BMP_temperature;BMP_pressure;BME280_temperature;BME280_humidity;BME280_pressure;Samples;Min_cycle;Max_cycle;Signal;HPM_P1;HPM_P2
2022/05/30 00:02:35;;;;;;;10.95;2.28;;;8.10;94.80;;;;;;6105285;23;20119;-71
2022/05/30 00:05:24;;;;;;;7.78;2.22;;;8.10;94.50;;;;;;6130564;23;20451;-71
2022/05/30 00:08:26;;;;;;;7.75;2.30;;;8.00;94.40;;;;;;6127801;23;20013;-71
2022/05/30 00:11:33;;;;;;;8.60;2.30;;;8.20;94.70;;;;;;6153940;23;20478;-71
2022/05/30 00:14:39;;;;;;;8.18;2.22;;;8.00;94.60;;;;;;6066860;23;20011;-71
2022/05/30 00:17:51;;;;;;;7.35;2.22;;;7.90;94.40;;;;;;5956701;24;20168;-72
2022/05/30 00:20:53;;;;;;;9.68;2.55;;;7.70;94.60;;;;;;5958299;24;20017;-71
2022/05/30 00:23:38;;;;;;;5.78;2.30;;;7.70;95.00;;;;;;5981446;24;20452;-72
2022/05/30 00:26:14;;;;;;;10.52;2.70;;;7.70;94.60;;;;;;5958036;24;20016;-72
2022/05/30 00:29:14;;;;;;;10.40;2.50;;;7.60;94.50;;;;;;5939885;24;20039;-71
2022/05/30 00:32:13;;;;;;;;;;;7.60;94.20;;;;;;5958045;24;20095;-71
2022/05/30 00:35:00;;;;;;;9.45;2.97;;;7.40;94.80;;;;;;6041569;23;20036;-71
2022/05/30 00:37:48;;;;;;;8.30;2.97;;;7.40;94.60;;;;;;6046355;23;20112;-72
2022/05/30 00:40:33;;;;;;;12.07;2.97;;;7.30;94.20;;;;;;6129441;23;20095;-71
2022/05/30 00:43:34;;;;;;;7.55;2.85;;;7.20;94.20;;;;;;6114231;23;20010;-71
2022/05/30 00:46:26;;;;;;;12.30;3.47;;;7.30;95.20;;;;;;6105667;23;20140;-70
2022/05/30 00:49:28;;;;;;;13.55;3.25;;;7.20;95.30;;;;;;6246745;23;20430;-71
2022/05/30 00:52:14;;;;;;;9.70;3.08;;;7.20;95.00;;;;;;6216936;23;20012;-71
2022/05/30 00:56:10;;;;;;;;;;;;;;;;;;;;;
2022/05/30 01:16:29;;;;;;;10.85;3.67;;;7.40;95.40;;;;;;6239377;22;20419;-71
2022/05/30 01:19:44;;;;;;;;;;;;;;;;;;;;;
2022/05/30 01:23:31;;;;;;;10.02;3.88;;;7.30;95.10;;;;;;6219918;23;20062;-72
2022/05/30 01:26:54;;;;;;;12.13;3.65;;;7.30;95.40;;;;;;6095259;23;20099;-72
2022/05/30 01:30:01;;;;;;;7.68;3.35;;;7.30;95.40;;;;;;6054234;23;20018;-71
2022/05/30 01:32:55;;;;;;;8.38;3.22;;;7.30;95.10;;;;;;6219076;23;20008;-71
2022/05/30 01:35:37;;;;;;;15.15;3.63;;;7.40;94.60;;;;;;6171829;23;20016;-72
2022/05/30 01:38:24;;;;;;;12.27;3.00;;;7.50;94.90;;;;;;6170060;23;20004;-71
2022/05/30 01:41:06;;;;;;;9.85;2.97;;;7.50;94.10;;;;;;6222594;23;20017;-72
2022/05/30 01:43:52;;;;;;;4.72;3.00;;;7.60;94.30;;;;;;6194819;23;20046;-71
2022/05/30 01:46:35;;;;;;;9.07;2.83;;;7.50;94.00;;;;;;6246784;22;20008;-71
2022/05/30 01:49:23;;;;;;;13.43;3.30;;;7.70;94.10;;;;;;6171349;23;20016;-71
2022/05/30 01:52:16;;;;;;;;;;;;;;;;;;;;;
2022/05/30 01:55:26;;;;;;;9.93;3.22;;;7.70;94.50;;;;;;6206463;22;20415;-72
2022/05/30 01:58:03;;;;;;;6.60;2.95;;;7.70;94.30;;;;;;6194805;23;20004;-72
2022/05/30 02:03:39;;;;;;;5.32;1.90;;;7.80;94.20;;;;;;6219925;23;20012;-72
2022/05/30 02:06:05;;;;;;;7.28;1.90;;;7.90;94.20;;;;;;6215867;23;20068;-72
2022/05/30 02:08:33;;;;;;;5.30;1.58;;;7.90;94.20;;;;;;6193542;23;20087;-72
2022/05/30 02:11:10;;;;;;;4.28;1.80;;;8.00;94.50;;;;;;6188612;23;20127;-72
2022/05/30 02:17:26;;;;;;;2.97;1.30;;;8.10;94.20;;;;;;6112430;23;20025;-72
2022/05/30 02:20:04;;;;;;;5.05;1.98;;;8.10;94.00;;;;;;6214886;23;20088;-72
2022/05/30 02:22:48;;;;;;;4.10;1.80;;;8.10;93.90;;;;;;6162345;23;20146;-72
2022/05/30 02:25:38;;;;;;;;;;;;;;;;;;;;;
2022/05/30 02:28:29;;;;;;;3.75;1.38;;;8.20;94.30;;;;;;6214800;23;20036;-72
2022/05/30 02:31:43;;;;;;;3.00;1.08;;;8.20;94.40;;;;;;6166598;23;20016;-72
2022/05/30 02:37:33;;;;;;;4.20;1.17;;;8.20;94.30;;;;;;6214154;23;20015;-71
2022/05/30 02:40:47;;;;;;;3.25;1.30;;;8.20;94.30;;;;;;6186436;23;20017;-73
2022/05/30 02:43:28;;;;;;;2.35;1.50;;;8.10;94.70;;;;;;6135885;23;20062;-72
2022/05/30 02:46:04;;;;;;;4.63;1.73;;;8.00;94.70;;;;;;6214503;23;20004;-72
2022/05/30 02:48:38;;;;;;;5.97;1.70;;;8.30;94.40;;;;;;6189505;23;20016;-72
2022/05/30 02:51:14;;;;;;;5.53;1.90;;;8.00;94.50;;;;;;6163905;23;20012;-72
2022/05/30 02:54:18;;;;;;;2.58;1.60;;;8.10;94.90;;;;;;6215355;23;20008;-72
2022/05/30 02:57:28;;;;;;;4.32;1.55;;;8.10;94.70;;;;;;6213250;23;20012;-72
2022/05/30 03:00:51;;;;;;;5.45;1.90;;;8.10;94.80;;;;;;6177142;23;20074;-72
2022/05/30 03:04:18;;;;;;;3.20;1.85;;;8.10;95.10;;;;;;6078389;23;20029;-72
2022/05/30 03:07:35;;;;;;;;;;;;;;;;;;;;;
2022/05/30 03:17:02;;;;;;;5.00;1.42;;;8.30;94.20;;;;;;6210252;23;20363;-72
2022/05/30 03:20:08;;;;;;;;;;;;;;;;;;;;;
2022/05/30 03:23:04;;;;;;;4.10;1.48;;;8.30;94.00;;;;;;6213683;23;20419;-73
2022/05/30 03:26:31;;;;;;;;;;;;;;;;;;;;;
2022/05/30 03:32:51;;;;;;;;;;;;;;;;;;;;;
2022/05/30 03:35:52;;;;;;;4.40;1.40;;;8.30;94.10;;;;;;6215142;23;20012;-72
2022/05/30 03:38:39;;;;;;;7.05;1.60;;;8.30;94.20;;;;;;6213138;23;20013;-72
2022/05/30 03:41:52;;;;;;;7.13;1.67;;;8.40;94.70;;;;;;6213866;23;20012;-73
2022/05/30 03:44:55;;;;;;;6.78;1.38;;;8.40;94.40;;;;;;6213816;23;20087;-72
2022/05/30 03:51:35;;;;;;;4.10;1.50;;;8.50;94.80;;;;;;6175688;23;20017;-74
2022/05/30 03:58:09;;;;;;;4.13;1.48;;;8.60;95.00;;;;;;6208679;23;20016;-73
2022/05/30 04:01:05;;;;;;;3.97;1.50;;;8.50;94.80;;;;;;6213622;23;20491;-73
2022/05/30 04:03:51;;;;;;;7.03;1.65;;;8.50;94.80;;;;;;6166559;23;20005;-72
2022/05/30 04:06:37;;;;;;;7.35;1.35;;;8.70;94.70;;;;;;6190532;23;20493;-73
2022/05/30 04:09:30;;;;;;;3.38;1.60;;;8.60;94.70;;;;;;6220619;23;20162;-73
2022/05/30 04:12:19;;;;;;;3.53;1.30;;;8.60;94.60;;;;;;6196331;23;20342;-73
2022/05/30 04:15:34;;;;;;;2.10;1.35;;;8.60;94.40;;;;;;6220004;22;20314;-74
2022/05/30 04:18:08;;;;;;;5.00;1.20;;;8.60;94.50;;;;;;6221057;23;20011;-73
2022/05/30 04:21:01;;;;;;;2.03;1.35;;;8.60;94.20;;;;;;6247455;23;20438;-72
2022/05/30 04:23:41;;;;;;;5.10;1.70;;;8.60;94.00;;;;;;6221042;23;20008;-73
2022/05/30 04:26:54;;;;;;;3.55;1.35;;;8.60;94.30;;;;;;6220131;23;20047;-74
2022/05/30 04:30:17;;;;;;;4.68;1.65;;;8.50;94.10;;;;;;6219251;23;20016;-72
2022/05/30 04:33:16;;;;;;;8.00;1.70;;;8.40;93.80;;;;;;6219937;23;20014;-73
2022/05/30 04:39:36;;;;;;;2.20;1.42;;;8.30;93.80;;;;;;6153836;23;20069;-72
2022/05/30 04:47:21;;;;;;;;;;;;;;;;;;;;;
2022/05/30 04:55:07;;;;;;;4.57;1.90;;;8.70;94.10;;;;;;5926226;24;20025;-73
2022/05/30 05:03:12;;;;;;;;;;;;;;;;;;;;;
2022/05/30 05:05:41;;;;;;;4.78;1.95;;;9.90;93.20;;;;;;5733343;24;20181;-73
2022/05/30 05:08:47;;;;;;;6.53;1.98;;;10.40;92.60;;;;;;5787704;24;20072;-73
2022/05/30 05:22:44;;;;;;;4.07;1.65;;;10.90;91.50;;;;;;6246889;23;20006;-74
2022/05/30 05:25:25;;;;;;;2.22;1.40;;;11.10;91.20;;;;;;6170182;22;20087;-75
2022/05/30 05:30:50;;;;;;;3.25;1.38;;;11.30;91.20;;;;;;6220279;23;20019;-73
2022/05/30 05:33:17;;;;;;;5.60;1.30;;;11.30;90.80;;;;;;6194783;23;20379;-73
2022/05/30 05:35:45;;;;;;;7.63;1.75;;;11.20;90.70;;;;;;6246914;22;20008;-72
2022/05/30 05:38:42;;;;;;;3.55;1.40;;;11.30;90.80;;;;;;6219685;23;20021;-80
2022/05/30 05:41:11;;;;;;;3.40;1.50;;;11.30;90.40;;;;;;6195625;23;20064;-72
2022/05/30 05:43:36;;;;;;;6.17;1.40;;;11.20;90.40;;;;;;6220089;23;20012;-76
2022/05/30 05:46:02;;;;;;;3.65;1.10;;;11.20;90.80;;;;;;6220235;23;20451;-73
2022/05/30 05:48:28;;;;;;;4.90;1.40;;;11.10;90.40;;;;;;6220158;23;20012;-72
2022/05/30 05:50:54;;;;;;;6.05;2.28;;;11.00;90.50;;;;;;6220122;23;20012;-72
2022/05/30 05:53:20;;;;;;;5.13;1.40;;;11.00;90.30;;;;;;6220201;23;20018;-73
2022/05/30 05:55:45;;;;;;;4.18;1.88;;;10.90;90.10;;;;;;6194395;23;20008;-75
2022/05/30 05:58:11;;;;;;;3.38;1.38;;;10.90;90.50;;;;;;6218661;23;20416;-74
2022/05/30 06:00:37;;;;;;;2.38;1.17;;;11.00;90.40;;;;;;6219633;23;20011;-75
2022/05/30 06:03:03;;;;;;;3.30;1.52;;;11.00;90.30;;;;;;6220126;23;20015;-72
2022/05/30 06:05:30;;;;;;;6.50;1.10;;;11.10;90.20;;;;;;6219862;23;20012;-75
2022/05/30 06:07:59;;;;;;;1.98;0.90;;;11.20;90.10;;;;;;6195014;23;20130;-74
2022/05/30 06:10:25;;;;;;;4.03;1.10;;;11.20;88.90;;;;;;6219501;23;20426;-74
2022/05/30 06:12:51;;;;;;;3.03;0.90;;;11.20;88.50;;;;;;6218680;23;20442;-76
2022/05/30 06:15:19;;;;;;;0.93;0.80;;;11.20;88.50;;;;;;6194222;23;20019;-75
2022/05/30 06:17:47;;;;;;;5.18;0.90;;;11.30;88.40;;;;;;6194311;23;20065;-73
2022/05/30 06:24:00;;;;;;;1.75;0.70;;;11.40;86.70;;;;;;6246146;23;20019;-76
2022/05/30 08:36:01;;;;;;;3.22;0.90;;;15.50;66.50;;;;;;6234647;22;20077;-76
2022/05/30 08:38:45;;;;;;;2.97;0.98;;;15.40;65.00;;;;;;6221613;23;20012;-76
2022/05/30 08:41:54;;;;;;;6.32;1.70;;;15.20;67.70;;;;;;6219985;23;20427;-72
2022/05/30 08:44:38;;;;;;;8.55;2.03;;;15.10;69.50;;;;;;6191953;23;20303;-74
2022/05/30 08:47:38;;;;;;;2.80;1.00;;;14.90;70.10;;;;;;6195508;23;20010;-74
2022/05/30 08:50:21;;;;;;;5.78;1.40;;;14.60;69.90;;;;;;6192975;23;20397;-75
2022/05/30 08:52:59;;;;;;;6.40;1.48;;;14.40;70.00;;;;;;6193976;23;20035;-73
2022/05/30 08:55:44;;;;;;;3.35;1.20;;;14.40;70.90;;;;;;6194189;22;20090;-74
2022/05/30 08:58:24;;;;;;;3.60;1.25;;;14.20;69.60;;;;;;6219691;23;20004;-74
2022/05/30 09:00:59;;;;;;;4.38;1.33;;;14.10;70.40;;;;;;6219085;23;20015;-73
2022/05/30 09:04:18;;;;;;;4.43;1.20;;;14.10;70.40;;;;;;6219150;23;20079;-74
2022/05/30 09:07:16;;;;;;;5.72;1.08;;;14.10;70.40;;;;;;6103977;23;20040;-74
2022/05/30 09:09:50;;;;;;;4.30;0.90;;;14.20;69.40;;;;;;6128984;23;20093;-74
2022/05/30 09:13:00;;;;;;;2.72;0.80;;;14.50;68.60;;;;;;6197324;23;20048;-74
2022/05/30 09:16:06;;;;;;;2.92;0.90;;;14.40;68.70;;;;;;6217775;22;20062;-72
2022/05/30 09:18:55;;;;;;;6.30;0.90;;;14.50;69.60;;;;;;6196266;23;20016;-74
2022/05/30 09:21:26;;;;;;;5.45;0.90;;;14.30;70.20;;;;;;6219143;23;20062;-74
2022/05/30 09:23:59;;;;;;;5.55;1.17;;;14.30;70.90;;;;;;6215924;23;20012;-77
2022/05/30 09:26:33;;;;;;;6.38;1.27;;;14.30;71.70;;;;;;6218863;23;20107;-76
2022/05/30 09:29:20;;;;;;;13.15;1.45;;;14.50;71.70;;;;;;6194345;23;20012;-74
2022/05/30 09:32:09;;;;;;;6.27;1.40;;;15.10;72.20;;;;;;6193660;23;20048;-75
2022/05/30 09:38:24;;;;;;;3.78;1.25;;;15.30;69.20;;;;;;6207174;23;20028;-72
2022/05/30 09:40:53;;;;;;;5.45;1.15;;;15.10;70.30;;;;;;6187559;23;20012;-71
2022/05/30 09:43:39;;;;;;;2.33;0.90;;;15.00;69.90;;;;;;6187225;23;20016;-70
2022/05/30 09:46:26;;;;;;;3.33;1.00;;;14.90;69.50;;;;;;6212674;23;20367;-75
2022/05/30 09:49:00;;;;;;;3.08;0.93;;;14.70;67.40;;;;;;6187719;23;20247;-72
2022/05/30 09:51:50;;;;;;;3.22;0.90;;;14.70;67.50;;;;;;6187047;23;20013;-74
2022/05/30 09:54:25;;;;;;;6.18;1.20;;;14.80;68.80;;;;;;6162578;23;20048;-73
2022/05/30 09:57:05;;;;;;;5.72;1.00;;;15.20;67.90;;;;;;6212552;23;20340;-73
2022/05/30 09:59:37;;;;;;;5.93;1.00;;;15.50;67.00;;;;;;6187420;23;20428;-74
2022/05/30 10:02:19;;;;;;;2.88;0.90;;;15.50;67.40;;;;;;6162323;23;20016;-72
2022/05/30 10:04:44;;;;;;;3.67;0.90;;;15.50;66.70;;;;;;6187273;23;20023;-72
2022/05/30 10:11:08;;;;;;;4.35;1.20;;;15.40;66.80;;;;;;6152750;23;20048;-74
2022/05/30 10:13:35;;;;;;;4.78;1.27;;;15.50;66.10;;;;;;6134632;22;20456;-72
2022/05/30 10:16:08;;;;;;;3.88;1.10;;;15.50;66.60;;;;;;6218874;23;20042;-72
2022/05/30 10:18:44;;;;;;;4.25;1.13;;;15.70;66.70;;;;;;6218520;23;20370;-72
2022/05/30 10:29:13;;;;;;;4.20;1.17;;;16.30;65.30;;;;;;6098233;23;20022;-75
2022/05/30 10:32:46;;;;;;;6.32;0.95;;;16.20;64.60;;;;;;6105609;23;20408;-71
2022/05/30 10:35:39;;;;;;;3.03;0.70;;;16.20;64.00;;;;;;6095855;23;20377;-73
2022/05/30 10:38:26;;;;;;;3.30;1.25;;;16.20;62.80;;;;;;6096625;23;20068;-73
2022/05/30 10:41:11;;;;;;;5.43;0.90;;;16.20;62.80;;;;;;6069670;23;20018;-74
2022/05/30 10:43:55;;;;;;;3.33;1.05;;;16.20;63.20;;;;;;6069125;23;20018;-76
2022/05/30 10:46:48;;;;;;;4.45;0.82;;;16.10;64.70;;;;;;6171658;23;20012;-77
2022/05/30 10:49:21;;;;;;;3.53;0.95;;;16.30;64.60;;;;;;6218493;23;20008;-76
2022/05/30 10:51:47;;;;;;;4.93;1.20;;;16.10;64.20;;;;;;6193047;23;20066;-72
2022/05/30 10:54:26;;;;;;;3.80;0.93;;;16.20;63.10;;;;;;6192932;23;20008;-77
2022/05/30 10:56:58;;;;;;;6.40;1.02;;;16.10;62.70;;;;;;6193338;23;20058;-76
2022/05/30 10:59:34;;;;;;;4.38;0.90;;;16.10;63.70;;;;;;6193335;23;20016;-77
2022/05/30 11:02:38;;;;;;;3.70;0.90;;;16.20;64.20;;;;;;6218234;23;20015;-77
2022/05/30 11:05:10;;;;;;;4.68;1.08;;;16.30;63.00;;;;;;6193138;23;20043;-72
2022/05/30 11:08:20;;;;;;;4.28;0.93;;;16.20;63.30;;;;;;6192968;23;20019;-73
2022/05/30 11:10:56;;;;;;;2.92;0.85;;;16.10;63.90;;;;;;6193215;23;20059;-75
2022/05/30 11:13:46;;;;;;;6.03;0.90;;;16.50;64.60;;;;;;6218034;23;20415;-73
2022/05/30 11:16:47;;;;;;;5.70;1.33;;;16.70;62.60;;;;;;6218405;23;20058;-75
2022/05/30 11:19:48;;;;;;;5.47;1.20;;;16.70;61.70;;;;;;6194066;23;20004;-76
2022/05/30 11:22:37;;;;;;;5.13;1.15;;;16.60;61.90;;;;;;6128631;23;20013;-75
2022/05/30 11:25:20;;;;;;;5.95;1.25;;;16.60;62.20;;;;;;6194830;23;20497;-73
2022/05/30 11:28:02;;;;;;;4.60;1.20;;;16.80;62.60;;;;;;6219908;23;20450;-72
2022/05/30 11:30:36;;;;;;;4.00;1.40;;;16.60;62.50;;;;;;6195217;23;20427;-73
2022/05/30 11:33:21;;;;;;;4.10;1.08;;;16.80;64.30;;;;;;6221877;23;20366;-73
2022/05/30 11:36:02;;;;;;;3.97;0.90;;;16.80;62.40;;;;;;6221288;22;20012;-74
2022/05/30 11:50:34;;;;;;;8.13;1.33;;;16.40;63.70;;;;;;6156689;23;20424;-73
2022/05/30 16:54:19;;;;;;;4.80;1.27;;;16.30;59.40;;;;;;6300002;22;20019;-71
2022/05/30 17:43:23;;;;;;;7.40;1.52;;;15.60;62.00;;;;;;6153908;23;20332;-71
2022/05/30 17:49:43;;;;;;;5.68;1.20;;;15.30;60.50;;;;;;6129162;23;20445;-72
2022/05/30 17:52:22;;;;;;;2.08;1.17;;;15.20;61.10;;;;;;6148164;22;20045;-71
2022/05/30 17:54:52;;;;;;;3.65;1.23;;;15.20;62.50;;;;;;6250713;22;20365;-71
2022/05/30 17:57:18;;;;;;;3.33;1.27;;;15.20;61.00;;;;;;6249662;22;20047;-71
2022/05/30 17:59:46;;;;;;;5.15;1.17;;;15.10;60.80;;;;;;6250317;22;20046;-71
2022/05/30 18:02:18;;;;;;;3.80;1.45;;;15.00;61.70;;;;;;6250431;22;20495;-71
2022/05/30 18:04:45;;;;;;;3.67;1.00;;;15.00;62.30;;;;;;6224759;22;20060;-71
2022/05/30 18:07:24;;;;;;;5.13;1.17;;;14.90;61.70;;;;;;6250129;22;20357;-71
2022/05/30 18:10:05;;;;;;;4.88;1.63;;;14.90;62.10;;;;;;6250617;22;20007;-71
2022/05/30 18:12:46;;;;;;;3.72;0.98;;;14.80;62.20;;;;;;6223831;22;20039;-71
2022/05/30 18:15:36;;;;;;;6.05;1.10;;;14.60;61.80;;;;;;6277610;22;20007;-71
2022/05/30 18:21:14;;;;;;;3.55;1.20;;;14.60;62.80;;;;;;6250380;22;20020;-71
2022/05/30 18:23:49;;;;;;;6.35;1.30;;;14.50;63.40;;;;;;6249795;22;20431;-71
2022/05/30 18:26:15;;;;;;;5.57;1.42;;;14.50;63.10;;;;;;6224410;22;20013;-71
2022/05/30 18:28:41;;;;;;;9.00;2.22;;;14.40;63.40;;;;;;6224703;22;20019;-71
2022/05/30 18:31:25;;;;;;;7.32;2.33;;;14.40;64.90;;;;;;6250351;22;20434;-72
2022/05/30 18:34:04;;;;;;;12.07;3.28;;;14.20;68.40;;;;;;6225069;22;20019;-71
2022/05/30 18:36:45;;;;;;;12.23;2.72;;;14.20;68.00;;;;;;6250085;22;20011;-71
2022/05/30 18:39:30;;;;;;;6.32;3.03;;;14.20;69.30;;;;;;6250114;22;20326;-71
2022/05/30 18:42:15;;;;;;;10.63;3.75;;;14.00;71.40;;;;;;6250171;22;20018;-71
2022/05/30 18:44:54;;;;;;;6.65;2.78;;;14.00;70.50;;;;;;6250068;22;20421;-72
2022/05/30 18:47:25;;;;;;;8.25;2.63;;;13.90;69.90;;;;;;6250211;22;20023;-72
2022/05/30 18:49:59;;;;;;;8.57;2.38;;;13.70;70.50;;;;;;6250459;22;20008;-71
2022/05/30 18:52:25;;;;;;;11.93;3.33;;;13.60;71.90;;;;;;6250122;22;20086;-71
2022/05/30 18:54:51;;;;;;;;;;;13.60;71.50;;;;;;6225465;22;20488;-72
2022/05/30 18:57:49;;;;;;;7.90;2.50;;;13.40;72.90;;;;;;6249738;22;19915;-72
2022/05/30 19:00:20;;;;;;;8.45;2.72;;;13.30;74.00;;;;;;6201053;22;20041;-72
2022/05/30 19:02:49;;;;;;;8.38;2.30;;;13.10;73.90;;;;;;6249544;22;20015;-72
2022/05/30 19:05:19;;;;;;;9.30;2.22;;;13.10;73.60;;;;;;6249870;22;20039;-72
2022/05/30 19:07:49;;;;;;;7.90;2.30;;;13.00;74.10;;;;;;6249709;22;20007;-71
2022/05/30 19:10:16;;;;;;;4.63;2.28;;;12.90;75.70;;;;;;6224817;22;20008;-72
2022/05/30 19:12:50;;;;;;;6.68;2.30;;;12.90;75.80;;;;;;6249920;22;20012;-71
2022/05/30 19:18:22;;;;;;;5.25;2.38;;;12.80;76.10;;;;;;6249117;22;20012;-72
2022/05/30 19:20:48;;;;;;;5.40;2.35;;;12.70;76.30;;;;;;6276479;22;20015;-72
2022/05/30 19:23:13;;;;;;;8.52;2.72;;;12.60;76.70;;;;;;6224804;22;20015;-71
2022/05/30 19:25:39;;;;;;;6.82;2.83;;;12.60;76.70;;;;;;6199510;22;20061;-72
2022/05/30 19:28:19;;;;;;;6.32;2.47;;;12.50;77.60;;;;;;6249131;22;20422;-73
2022/05/30 19:30:45;;;;;;;10.32;3.05;;;12.40;78.00;;;;;;6248499;22;20011;-70
2022/05/30 19:33:16;;;;;;;9.93;2.40;;;12.40;79.30;;;;;;6250142;22;20003;-72
2022/05/30 19:35:47;;;;;;;6.72;2.70;;;12.30;78.40;;;;;;6249445;22;20295;-71
2022/05/30 19:38:15;;;;;;;8.90;2.50;;;12.30;77.90;;;;;;6250575;22;20012;-69
2022/05/30 19:40:50;;;;;;;5.15;2.72;;;12.30;78.70;;;;;;6201542;22;20430;-72
2022/05/30 19:43:20;;;;;;;6.53;2.78;;;12.20;78.40;;;;;;6226477;22;20014;-72
2022/05/30 19:45:49;;;;;;;6.68;2.53;;;12.20;78.70;;;;;;6251399;22;20058;-70
2022/05/30 19:48:17;;;;;;;11.27;3.45;;;12.10;78.10;;;;;;6226399;22;20004;-70
2022/05/30 19:51:28;;;;;;;;;;;;;;;;;;;;;
2022/05/30 19:54:19;;;;;;;5.57;2.55;;;12.10;78.60;;;;;;6247569;22;20008;-77
2022/05/30 19:57:06;;;;;;;6.95;2.90;;;11.90;79.00;;;;;;6250752;22;20008;-74
2022/05/30 19:59:50;;;;;;;8.27;2.88;;;11.80;80.10;;;;;;6250820;22;20015;-75
2022/05/30 20:02:57;;;;;;;7.57;3.60;;;11.80;79.30;;;;;;6227384;22;20422;-73
2022/05/30 20:46:59;;;;;;;10.50;4.25;;;10.80;82.90;;;;;;6207741;22;20028;-76
